sensor_id;sensor_type;location;lat;lon;timestamp;temperature;humidity
20174;DHT22;10246;50.620;7.232;2023-07-24T00:00:00;20.30;2.50
20174;DHT22;10246;50.620;7.232;2023-07-24T00:02:27;20.20;3.40
20174;DHT22;10246;50.620;7.232;2023-07-24T00:04:55;20.20;3.60
20174;DHT22;10246;50.620;7.232;2023-07-24T00:07:22;20.10;3.90
20174;DHT22;10246;50.620;7.232;2023-07-24T00:09:48;20.20;3.00
20174;DHT22;10246;50.620;7.232;2023-07-24T00:12:15;20.20;2.90
20174;DHT22;10246;50.620;7.232;2023-07-24T00:14:42;20.20;3.60
20174;DHT22;10246;50.620;7.232;2023-07-24T00:17:09;20.20;1.60
20174;DHT22;10246;50.620;7.232;2023-07-24T00:19:35;20.30;1.10
20174;DHT22;10246;50.620;7.232;2023-07-24T00:22:04;20.30;1.40
20174;DHT22;10246;50.620;7.232;2023-07-24T00:24:31;20.40;1.50
20174;DHT22;10246;50.620;7.232;2023-07-24T00:26:58;20.40;1.00
20174;DHT22;10246;50.620;7.232;2023-07-24T00:29:25;20.50;1.10
20174;DHT22;10246;50.620;7.232;2023-07-24T00:31:51;20.50;1.00
20174;DHT22;10246;50.620;7.232;2023-07-24T00:34:18;20.50;1.00
20174;DHT22;10246;50.620;7.232;2023-07-24T00:36:45;20.50;1.00
20174;DHT22;10246;50.620;7.232;2023-07-24T00:39:14;20.50;1.00
20174;DHT22;10246;50.620;7.232;2023-07-24T00:41:41;20.60;1.00
20174;DHT22;10246;50.620;7.232;2023-07-24T00:44:08;20.60;1.00
20174;DHT22;10246;50.620;7.232;2023-07-24T00:46:35;20.70;1.00
20174;DHT22;10246;50.620;7.232;2023-07-24T00:49:03;20.60;1.00
20174;DHT22;10246;50.620;7.232;2023-07-24T00:51:30;20.50;1.00
20174;DHT22;10246;50.620;7.232;2023-07-24T00:53:59;20.40;1.00
20174;DHT22;10246;50.620;7.232;2023-07-24T00:56:29;20.40;1.00
20174;DHT22;10246;50.620;7.232;2023-07-24T00:58:57;20.30;1.00
20174;DHT22;10246;50.620;7.232;2023-07-24T01:01:24;20.30;1.00
20174;DHT22;10246;50.620;7.232;2023-07-24T01:03:52;20.30;1.00
20174;DHT22;10246;50.620;7.232;2023-07-24T01:06:18;20.40;1.00
20174;DHT22;10246;50.620;7.232;2023-07-24T01:08:45;20.40;1.00
20174;DHT22;10246;50.620;7.232;2023-07-24T01:11:17;20.40;1.00
20174;DHT22;10246;50.620;7.232;2023-07-24T01:13:51;20.50;1.00
20174;DHT22;10246;50.620;7.232;2023-07-24T01:16:19;20.50;1.00
20174;DHT22;10246;50.620;7.232;2023-07-24T01:18:49;20.60;1.00
20174;DHT22;10246;50.620;7.232;2023-07-24T01:21:20;20.70;1.00
20174;DHT22;10246;50.620;7.232;2023-07-24T01:23:58;20.60;1.00
20174;DHT22;10246;50.620;7.232;2023-07-24T01:26:26;20.60;1.00
20174;DHT22;10246;50.620;7.232;2023-07-24T01:28:53;20.50;1.00
20174;DHT22;10246;50.620;7.232;2023-07-24T01:31:20;20.60;1.00
20174;DHT22;10246;50.620;7.232;2023-07-24T01:33:47;20.50;1.00
20174;DHT22;10246;50.620;7.232;2023-07-24T01:36:14;20.60;1.00
20174;DHT22;10246;50.620;7.232;2023-07-24T01:38:42;20.60;1.00
20174;DHT22;10246;50.620;7.232;2023-07-24T01:41:09;20.60;1.00
20174;DHT22;10246;50.620;7.232;2023-07-24T01:43:37;20.70;1.00
20174;DHT22;10246;50.620;7.232;2023-07-24T01:46:04;20.70;1.00
20174;DHT22;10246;50.620;7.232;2023-07-24T01:48:31;20.60;1.00
20174;DHT22;10246;50.620;7.232;2023-07-24T01:50:57;20.60;1.00
20174;DHT22;10246;50.620;7.232;2023-07-24T01:53:24;20.60;1.00
20174;DHT22;10246;50.620;7.232;2023-07-24T01:55:51;20.60;1.00
20174;DHT22;10246;50.620;7.232;2023-07-24T01:58:17;20.60;1.00
20174;DHT22;10246;50.620;7.232;2023-07-24T02:00:47;20.60;1.00
20174;DHT22;10246;50.620;7.232;2023-07-24T02:03:13;20.60;1.00
20174;DHT22;10246;50.620;7.232;2023-07-24T02:05:48;20.60;1.00
20174;DHT22;10246;50.620;7.232;2023-07-24T02:08:15;20.60;1.00
20174;DHT22;10246;50.620;7.232;2023-07-24T02:10:41;20.50;1.00
20174;DHT22;10246;50.620;7.232;2023-07-24T02:13:08;20.60;1.00
20174;DHT22;10246;50.620;7.232;2023-07-24T02:15:36;20.50;1.00
20174;DHT22;10246;50.620;7.232;2023-07-24T02:18:04;20.50;1.00
20174;DHT22;10246;50.620;7.232;2023-07-24T02:20:31;20.50;1.00
20174;DHT22;10246;50.620;7.232;2023-07-24T02:22:57;20.50;1.00
20174;DHT22;10246;50.620;7.232;2023-07-24T02:25:24;20.40;1.00
20174;DHT22;10246;50.620;7.232;2023-07-24T02:27:51;20.30;1.20
20174;DHT22;10246;50.620;7.232;2023-07-24T02:30:18;20.30;1.40
20174;DHT22;10246;50.620;7.232;2023-07-24T02:32:44;20.20;1.50
20174;DHT22;10246;50.620;7.232;2023-07-24T02:35:12;20.20;1.70
20174;DHT22;10246;50.620;7.232;2023-07-24T02:37:39;20.20;1.90
20174;DHT22;10246;50.620;7.232;2023-07-24T02:40:07;20.30;1.90
20174;DHT22;10246;50.620;7.232;2023-07-24T02:42:34;20.20;1.90
20174;DHT22;10246;50.620;7.232;2023-07-24T02:45:00;20.20;1.90
20174;DHT22;10246;50.620;7.232;2023-07-24T02:47:27;20.20;2.20
20174;DHT22;10246;50.620;7.232;2023-07-24T02:49:54;20.20;1.50
20174;DHT22;10246;50.620;7.232;2023-07-24T02:52:22;20.20;1.90
20174;DHT22;10246;50.620;7.232;2023-07-24T02:54:49;20.20;2.40
20174;DHT22;10246;50.620;7.232;2023-07-24T02:57:16;20.20;1.90
20174;DHT22;10246;50.620;7.232;2023-07-24T02:59:42;20.20;2.00
20174;DHT22;10246;50.620;7.232;2023-07-24T03:02:09;20.20;2.30
20174;DHT22;10246;50.620;7.232;2023-07-24T03:04:36;20.20;2.10
20174;DHT22;10246;50.620;7.232;2023-07-24T03:07:03;20.20;2.00
20174;DHT22;10246;50.620;7.232;2023-07-24T03:09:31;20.10;1.90
20174;DHT22;10246;50.620;7.232;2023-07-24T03:11:58;20.10;2.00
20174;DHT22;10246;50.620;7.232;2023-07-24T03:14:27;20.10;2.10
20174;DHT22;10246;50.620;7.232;2023-07-24T03:16:53;20.10;2.20
20174;DHT22;10246;50.620;7.232;2023-07-24T03:19:20;20.10;2.80
20174;DHT22;10246;50.620;7.232;2023-07-24T03:21:47;20.00;3.50
20174;DHT22;10246;50.620;7.232;2023-07-24T03:24:13;20.00;3.80
20174;DHT22;10246;50.620;7.232;2023-07-24T03:26:41;20.00;4.00
20174;DHT22;10246;50.620;7.232;2023-07-24T03:29:08;19.90;4.10
20174;DHT22;10246;50.620;7.232;2023-07-24T03:31:35;19.80;4.90
20174;DHT22;10246;50.620;7.232;2023-07-24T03:34:01;19.80;4.90
20174;DHT22;10246;50.620;7.232;2023-07-24T03:36:28;19.80;5.00
20174;DHT22;10246;50.620;7.232;2023-07-24T03:38:55;19.80;5.00
20174;DHT22;10246;50.620;7.232;2023-07-24T03:41:22;19.70;4.90
20174;DHT22;10246;50.620;7.232;2023-07-24T03:43:50;19.70;4.40
20174;DHT22;10246;50.620;7.232;2023-07-24T03:46:16;19.80;3.60
20174;DHT22;10246;50.620;7.232;2023-07-24T03:48:43;19.90;3.00
20174;DHT22;10246;50.620;7.232;2023-07-24T03:51:10;19.90;2.50
20174;DHT22;10246;50.620;7.232;2023-07-24T03:53:37;19.90;2.50
20174;DHT22;10246;50.620;7.232;2023-07-24T03:56:04;20.00;2.20
20174;DHT22;10246;50.620;7.232;2023-07-24T03:58:30;20.00;1.90
20174;DHT22;10246;50.620;7.232;2023-07-24T04:00:59;20.00;1.80
20174;DHT22;10246;50.620;7.232;2023-07-24T04:03:25;20.00;1.20
20174;DHT22;10246;50.620;7.232;2023-07-24T04:05:52;20.00;1.50
20174;DHT22;10246;50.620;7.232;2023-07-24T04:08:19;20.00;1.70
20174;DHT22;10246;50.620;7.232;2023-07-24T04:10:46;20.00;1.70
20174;DHT22;10246;50.620;7.232;2023-07-24T04:13:12;20.00;1.70
20174;DHT22;10246;50.620;7.232;2023-07-24T04:15:39;20.00;1.70
20174;DHT22;10246;50.620;7.232;2023-07-24T04:18:07;20.00;1.20
20174;DHT22;10246;50.620;7.232;2023-07-24T04:20:34;20.00;1.00
20174;DHT22;10246;50.620;7.232;2023-07-24T04:23:01;20.10;1.00
20174;DHT22;10246;50.620;7.232;2023-07-24T04:25:29;20.10;1.00
20174;DHT22;10246;50.620;7.232;2023-07-24T04:27:56;20.00;1.00
20174;DHT22;10246;50.620;7.232;2023-07-24T04:30:22;20.10;1.00
20174;DHT22;10246;50.620;7.232;2023-07-24T04:32:49;20.10;1.00
20174;DHT22;10246;50.620;7.232;2023-07-24T04:35:17;20.10;1.00
20174;DHT22;10246;50.620;7.232;2023-07-24T04:37:44;20.10;1.00
20174;DHT22;10246;50.620;7.232;2023-07-24T04:40:11;20.10;1.00
20174;DHT22;10246;50.620;7.232;2023-07-24T04:42:38;20.10;1.00
20174;DHT22;10246;50.620;7.232;2023-07-24T04:45:06;20.10;1.00
20174;DHT22;10246;50.620;7.232;2023-07-24T04:47:33;20.10;1.00
20174;DHT22;10246;50.620;7.232;2023-07-24T04:49:59;20.20;1.00
20174;DHT22;10246;50.620;7.232;2023-07-24T04:52:27;20.20;1.00
20174;DHT22;10246;50.620;7.232;2023-07-24T04:54:54;20.30;1.00
20174;DHT22;10246;50.620;7.232;2023-07-24T04:57:21;20.30;1.00
20174;DHT22;10246;50.620;7.232;2023-07-24T04:59:47;20.40;1.00
20174;DHT22;10246;50.620;7.232;2023-07-24T05:02:14;20.40;1.00
20174;DHT22;10246;50.620;7.232;2023-07-24T05:04:41;20.40;1.00
20174;DHT22;10246;50.620;7.232;2023-07-24T05:07:08;20.50;1.00
20174;DHT22;10246;50.620;7.232;2023-07-24T05:09:38;20.50;1.00
20174;DHT22;10246;50.620;7.232;2023-07-24T05:12:06;20.50;1.00
20174;DHT22;10246;50.620;7.232;2023-07-24T05:14:33;20.50;1.00
20174;DHT22;10246;50.620;7.232;2023-07-24T05:16:59;20.50;1.00
20174;DHT22;10246;50.620;7.232;2023-07-24T05:19:26;20.60;1.00
20174;DHT22;10246;50.620;7.232;2023-07-24T05:21:53;20.60;1.00
20174;DHT22;10246;50.620;7.232;2023-07-24T05:24:19;20.60;1.00
20174;DHT22;10246;50.620;7.232;2023-07-24T05:26:47;20.60;1.00
20174;DHT22;10246;50.620;7.232;2023-07-24T05:29:17;20.60;1.00
20174;DHT22;10246;50.620;7.232;2023-07-24T05:31:44;20.70;1.00
20174;DHT22;10246;50.620;7.232;2023-07-24T05:34:10;20.70;1.00
20174;DHT22;10246;50.620;7.232;2023-07-24T05:36:37;20.70;1.00
20174;DHT22;10246;50.620;7.232;2023-07-24T05:39:07;20.70;1.00
20174;DHT22;10246;50.620;7.232;2023-07-24T05:41:33;20.80;1.00
20174;DHT22;10246;50.620;7.232;2023-07-24T05:44:02;20.80;1.00
20174;DHT22;10246;50.620;7.232;2023-07-24T05:46:28;20.80;1.00
20174;DHT22;10246;50.620;7.232;2023-07-24T05:48:55;20.80;1.00
20174;DHT22;10246;50.620;7.232;2023-07-24T05:51:23;20.90;1.00
20174;DHT22;10246;50.620;7.232;2023-07-24T05:53:49;21.00;1.00
20174;DHT22;10246;50.620;7.232;2023-07-24T05:56:16;21.20;1.00
20174;DHT22;10246;50.620;7.232;2023-07-24T05:58:43;21.20;1.00
20174;DHT22;10246;50.620;7.232;2023-07-24T06:01:11;21.30;1.00
20174;DHT22;10246;50.620;7.232;2023-07-24T06:03:40;21.40;1.00
20174;DHT22;10246;50.620;7.232;2023-07-24T06:06:07;21.40;1.00
20174;DHT22;10246;50.620;7.232;2023-07-24T06:08:33;21.50;1.00
20174;DHT22;10246;50.620;7.232;2023-07-24T06:11:00;21.50;1.00
20174;DHT22;10246;50.620;7.232;2023-07-24T06:13:35;21.60;1.00
20174;DHT22;10246;50.620;7.232;2023-07-24T06:16:02;21.70;1.00
20174;DHT22;10246;50.620;7.232;2023-07-24T06:18:34;21.70;1.00
20174;DHT22;10246;50.620;7.232;2023-07-24T06:21:01;21.70;1.00
20174;DHT22;10246;50.620;7.232;2023-07-24T06:23:27;21.80;1.00
20174;DHT22;10246;50.620;7.232;2023-07-24T06:25:54;21.80;1.00
20174;DHT22;10246;50.620;7.232;2023-07-24T06:28:21;21.80;1.00
20174;DHT22;10246;50.620;7.232;2023-07-24T06:30:52;21.90;1.00
20174;DHT22;10246;50.620;7.232;2023-07-24T06:33:18;22.00;1.00
20174;DHT22;10246;50.620;7.232;2023-07-24T06:35:48;22.20;1.00
20174;DHT22;10246;50.620;7.232;2023-07-24T06:38:15;22.30;1.00
20174;DHT22;10246;50.620;7.232;2023-07-24T06:40:42;22.50;1.00
20174;DHT22;10246;50.620;7.232;2023-07-24T06:43:09;22.60;1.00
20174;DHT22;10246;50.620;7.232;2023-07-24T06:45:36;22.70;1.00
20174;DHT22;10246;50.620;7.232;2023-07-24T06:48:03;22.90;1.00
20174;DHT22;10246;50.620;7.232;2023-07-24T06:50:29;23.00;1.00
20174;DHT22;10246;50.620;7.232;2023-07-24T06:52:58;23.20;1.00
20174;DHT22;10246;50.620;7.232;2023-07-24T06:55:24;23.30;1.00
20174;DHT22;10246;50.620;7.232;2023-07-24T06:57:51;23.30;1.00
20174;DHT22;10246;50.620;7.232;2023-07-24T07:00:18;23.30;1.00
20174;DHT22;10246;50.620;7.232;2023-07-24T07:02:45;23.30;1.00
20174;DHT22;10246;50.620;7.232;2023-07-24T07:05:11;23.30;1.00
20174;DHT22;10246;50.620;7.232;2023-07-24T07:07:38;23.20;1.00
20174;DHT22;10246;50.620;7.232;2023-07-24T07:10:08;23.20;1.00
20174;DHT22;10246;50.620;7.232;2023-07-24T07:12:34;23.30;1.00
20174;DHT22;10246;50.620;7.232;2023-07-24T07:15:01;23.30;1.00
20174;DHT22;10246;50.620;7.232;2023-07-24T07:17:28;23.30;1.00
20174;DHT22;10246;50.620;7.232;2023-07-24T07:19:54;23.30;1.00
20174;DHT22;10246;50.620;7.232;2023-07-24T07:22:22;23.20;1.00
20174;DHT22;10246;50.620;7.232;2023-07-24T07:24:49;23.20;1.00
20174;DHT22;10246;50.620;7.232;2023-07-24T07:27:17;23.10;1.00
20174;DHT22;10246;50.620;7.232;2023-07-24T07:29:44;23.00;1.00
20174;DHT22;10246;50.620;7.232;2023-07-24T07:32:11;23.00;1.00
20174;DHT22;10246;50.620;7.232;2023-07-24T07:34:37;23.00;1.00
20174;DHT22;10246;50.620;7.232;2023-07-24T07:37:05;23.00;1.00
20174;DHT22;10246;50.620;7.232;2023-07-24T07:39:32;23.00;1.00
20174;DHT22;10246;50.620;7.232;2023-07-24T07:42:01;23.10;1.00
20174;DHT22;10246;50.620;7.232;2023-07-24T07:44:29;23.10;1.00
20174;DHT22;10246;50.620;7.232;2023-07-24T07:46:56;23.10;1.00
20174;DHT22;10246;50.620;7.232;2023-07-24T07:49:23;23.10;1.00
20174;DHT22;10246;50.620;7.232;2023-07-24T07:51:50;23.10;1.00
20174;DHT22;10246;50.620;7.232;2023-07-24T07:54:16;23.10;1.00
20174;DHT22;10246;50.620;7.232;2023-07-24T07:56:43;23.10;1.00
20174;DHT22;10246;50.620;7.232;2023-07-24T07:59:10;23.10;1.00
20174;DHT22;10246;50.620;7.232;2023-07-24T08:01:38;23.20;1.00
20174;DHT22;10246;50.620;7.232;2023-07-24T08:04:05;23.20;1.00
20174;DHT22;10246;50.620;7.232;2023-07-24T08:06:32;23.30;1.00
20174;DHT22;10246;50.620;7.232;2023-07-24T08:08:59;23.40;1.00
20174;DHT22;10246;50.620;7.232;2023-07-24T08:11:26;23.40;1.00
20174;DHT22;10246;50.620;7.232;2023-07-24T08:13:52;23.40;1.00
20174;DHT22;10246;50.620;7.232;2023-07-24T08:16:19;23.50;1.00
20174;DHT22;10246;50.620;7.232;2023-07-24T08:18:48;23.50;1.00
20174;DHT22;10246;50.620;7.232;2023-07-24T08:21:15;23.50;1.00
20174;DHT22;10246;50.620;7.232;2023-07-24T08:23:42;23.60;1.00
20174;DHT22;10246;50.620;7.232;2023-07-24T08:26:08;23.80;1.00
20174;DHT22;10246;50.620;7.232;2023-07-24T08:28:35;23.90;1.00
20174;DHT22;10246;50.620;7.232;2023-07-24T08:31:02;23.90;1.00
20174;DHT22;10246;50.620;7.232;2023-07-24T08:33:29;23.80;1.00
20174;DHT22;10246;50.620;7.232;2023-07-24T08:36:05;23.90;1.00
20174;DHT22;10246;50.620;7.232;2023-07-24T08:38:32;24.10;1.00
20174;DHT22;10246;50.620;7.232;2023-07-24T08:41:03;24.00;1.00
20174;DHT22;10246;50.620;7.232;2023-07-24T08:43:31;24.10;1.00
20174;DHT22;10246;50.620;7.232;2023-07-24T08:45:59;24.20;1.00
20174;DHT22;10246;50.620;7.232;2023-07-24T08:48:26;24.20;1.00
20174;DHT22;10246;50.620;7.232;2023-07-24T08:50:56;24.20;1.00
20174;DHT22;10246;50.620;7.232;2023-07-24T08:53:25;24.20;1.00
20174;DHT22;10246;50.620;7.232;2023-07-24T08:55:52;24.30;1.00
20174;DHT22;10246;50.620;7.232;2023-07-24T08:58:20;24.40;1.00
20174;DHT22;10246;50.620;7.232;2023-07-24T09:00:47;24.40;1.00
20174;DHT22;10246;50.620;7.232;2023-07-24T09:03:14;24.40;1.00
20174;DHT22;10246;50.620;7.232;2023-07-24T09:05:41;24.40;1.00
20174;DHT22;10246;50.620;7.232;2023-07-24T09:08:07;24.40;1.00
20174;DHT22;10246;50.620;7.232;2023-07-24T09:10:35;24.50;1.00
20174;DHT22;10246;50.620;7.232;2023-07-24T09:13:02;24.50;1.00
20174;DHT22;10246;50.620;7.232;2023-07-24T09:15:38;24.60;1.00
20174;DHT22;10246;50.620;7.232;2023-07-24T09:18:05;24.60;1.00
20174;DHT22;10246;50.620;7.232;2023-07-24T09:20:38;24.60;1.00
20174;DHT22;10246;50.620;7.232;2023-07-24T09:23:05;24.60;1.00
20174;DHT22;10246;50.620;7.232;2023-07-24T09:25:32;24.60;1.00
20174;DHT22;10246;50.620;7.232;2023-07-24T09:28:00;24.60;1.00
20174;DHT22;10246;50.620;7.232;2023-07-24T09:30:27;24.60;1.00
20174;DHT22;10246;50.620;7.232;2023-07-24T09:32:55;24.80;1.00
20174;DHT22;10246;50.620;7.232;2023-07-24T09:35:22;24.80;1.00
20174;DHT22;10246;50.620;7.232;2023-07-24T09:38:01;24.90;1.00
20174;DHT22;10246;50.620;7.232;2023-07-24T09:40:36;24.90;1.00
20174;DHT22;10246;50.620;7.232;2023-07-24T09:43:15;24.80;1.00
20174;DHT22;10246;50.620;7.232;2023-07-24T09:45:42;24.80;1.00
20174;DHT22;10246;50.620;7.232;2023-07-24T09:48:09;24.80;1.00
20174;DHT22;10246;50.620;7.232;2023-07-24T09:50:38;24.80;1.00
20174;DHT22;10246;50.620;7.232;2023-07-24T09:53:06;24.80;1.00
20174;DHT22;10246;50.620;7.232;2023-07-24T09:55:43;24.90;1.00
20174;DHT22;10246;50.620;7.232;2023-07-24T09:58:14;24.90;1.00
20174;DHT22;10246;50.620;7.232;2023-07-24T10:00:42;24.90;1.00
20174;DHT22;10246;50.620;7.232;2023-07-24T10:03:09;24.90;1.00
20174;DHT22;10246;50.620;7.232;2023-07-24T10:05:36;24.80;1.00
20174;DHT22;10246;50.620;7.232;2023-07-24T10:08:04;24.90;1.00
20174;DHT22;10246;50.620;7.232;2023-07-24T10:10:31;25.10;1.00
20174;DHT22;10246;50.620;7.232;2023-07-24T10:12:58;25.20;1.00
20174;DHT22;10246;50.620;7.232;2023-07-24T10:15:26;25.10;1.00
20174;DHT22;10246;50.620;7.232;2023-07-24T10:18:02;25.00;1.00
20174;DHT22;10246;50.620;7.232;2023-07-24T10:20:33;25.10;1.00
20174;DHT22;10246;50.620;7.232;2023-07-24T10:23:01;25.10;1.00
20174;DHT22;10246;50.620;7.232;2023-07-24T10:25:29;25.20;1.00
20174;DHT22;10246;50.620;7.232;2023-07-24T10:28:02;25.30;1.00
20174;DHT22;10246;50.620;7.232;2023-07-24T10:30:34;25.40;1.00
20174;DHT22;10246;50.620;7.232;2023-07-24T10:33:07;25.40;1.00
20174;DHT22;10246;50.620;7.232;2023-07-24T10:35:42;25.50;1.00
20174;DHT22;10246;50.620;7.232;2023-07-24T10:38:10;25.70;1.00
20174;DHT22;10246;50.620;7.232;2023-07-24T10:40:37;25.70;1.00
20174;DHT22;10246;50.620;7.232;2023-07-24T10:43:07;25.80;1.00
20174;DHT22;10246;50.620;7.232;2023-07-24T10:45:49;25.90;1.00
20174;DHT22;10246;50.620;7.232;2023-07-24T10:48:16;25.80;1.00
20174;DHT22;10246;50.620;7.232;2023-07-24T10:50:44;25.70;1.00
20174;DHT22;10246;50.620;7.232;2023-07-24T10:53:13;25.70;1.00
20174;DHT22;10246;50.620;7.232;2023-07-24T10:55:41;25.60;1.00
20174;DHT22;10246;50.620;7.232;2023-07-24T10:58:08;25.60;1.00
20174;DHT22;10246;50.620;7.232;2023-07-24T11:00:35;25.70;1.00
20174;DHT22;10246;50.620;7.232;2023-07-24T11:03:03;25.90;1.00
20174;DHT22;10246;50.620;7.232;2023-07-24T11:05:30;26.00;1.00
20174;DHT22;10246;50.620;7.232;2023-07-24T11:07:57;26.30;1.00
20174;DHT22;10246;50.620;7.232;2023-07-24T11:10:24;26.40;1.00
20174;DHT22;10246;50.620;7.232;2023-07-24T11:12:51;26.40;1.00
20174;DHT22;10246;50.620;7.232;2023-07-24T11:15:24;26.40;1.00
20174;DHT22;10246;50.620;7.232;2023-07-24T11:17:54;26.30;1.00
20174;DHT22;10246;50.620;7.232;2023-07-24T11:20:22;26.10;1.00
20174;DHT22;10246;50.620;7.232;2023-07-24T11:22:49;26.10;1.00
20174;DHT22;10246;50.620;7.232;2023-07-24T11:25:16;26.10;1.00
20174;DHT22;10246;50.620;7.232;2023-07-24T11:27:43;26.10;1.00
20174;DHT22;10246;50.620;7.232;2023-07-24T11:30:11;26.20;1.00
20174;DHT22;10246;50.620;7.232;2023-07-24T11:32:39;26.30;1.00
20174;DHT22;10246;50.620;7.232;2023-07-24T11:35:07;26.50;1.00
20174;DHT22;10246;50.620;7.232;2023-07-24T11:37:36;26.70;1.00
20174;DHT22;10246;50.620;7.232;2023-07-24T11:40:04;26.90;1.00
20174;DHT22;10246;50.620;7.232;2023-07-24T11:42:37;26.70;1.00
20174;DHT22;10246;50.620;7.232;2023-07-24T11:45:05;26.30;1.00
20174;DHT22;10246;50.620;7.232;2023-07-24T11:47:41;26.30;1.00
20174;DHT22;10246;50.620;7.232;2023-07-24T11:50:08;26.40;1.00
20174;DHT22;10246;50.620;7.232;2023-07-24T11:52:40;26.60;1.00
20174;DHT22;10246;50.620;7.232;2023-07-24T11:55:09;26.70;1.00
20174;DHT22;10246;50.620;7.232;2023-07-24T11:57:36;26.70;1.00
20174;DHT22;10246;50.620;7.232;2023-07-24T12:00:03;26.80;1.00
20174;DHT22;10246;50.620;7.232;2023-07-24T12:02:32;26.90;1.00
20174;DHT22;10246;50.620;7.232;2023-07-24T12:04:59;27.00;1.00
20174;DHT22;10246;50.620;7.232;2023-07-24T12:07:33;27.10;1.00
20174;DHT22;10246;50.620;7.232;2023-07-24T12:10:03;27.10;1.00
20174;DHT22;10246;50.620;7.232;2023-07-24T12:12:40;26.90;1.00
20174;DHT22;10246;50.620;7.232;2023-07-24T12:15:09;27.00;1.00
20174;DHT22;10246;50.620;7.232;2023-07-24T12:17:36;27.00;1.00
20174;DHT22;10246;50.620;7.232;2023-07-24T12:20:04;26.80;1.00
20174;DHT22;10246;50.620;7.232;2023-07-24T12:22:33;26.80;1.00
20174;DHT22;10246;50.620;7.232;2023-07-24T12:25:01;26.70;1.00
20174;DHT22;10246;50.620;7.232;2023-07-24T12:27:28;26.80;1.00
20174;DHT22;10246;50.620;7.232;2023-07-24T12:29:55;27.10;1.00
20174;DHT22;10246;50.620;7.232;2023-07-24T12:32:22;27.20;1.00
20174;DHT22;10246;50.620;7.232;2023-07-24T12:34:50;27.20;1.00
20174;DHT22;10246;50.620;7.232;2023-07-24T12:37:17;27.10;1.00
20174;DHT22;10246;50.620;7.232;2023-07-24T12:39:44;27.10;1.00
20174;DHT22;10246;50.620;7.232;2023-07-24T12:42:12;27.40;1.00
20174;DHT22;10246;50.620;7.232;2023-07-24T12:44:39;27.50;1.00
20174;DHT22;10246;50.620;7.232;2023-07-24T12:47:06;27.70;1.00
20174;DHT22;10246;50.620;7.232;2023-07-24T12:49:33;27.70;1.00
20174;DHT22;10246;50.620;7.232;2023-07-24T12:52:00;27.70;1.00
20174;DHT22;10246;50.620;7.232;2023-07-24T12:54:26;27.40;1.00
20174;DHT22;10246;50.620;7.232;2023-07-24T12:56:53;27.40;1.00
20174;DHT22;10246;50.620;7.232;2023-07-24T12:59:21;27.30;1.00
20174;DHT22;10246;50.620;7.232;2023-07-24T13:01:48;27.20;1.00
20174;DHT22;10246;50.620;7.232;2023-07-24T13:04:15;27.10;1.00
20174;DHT22;10246;50.620;7.232;2023-07-24T13:06:41;26.80;1.00
20174;DHT22;10246;50.620;7.232;2023-07-24T13:09:08;26.50;1.00
20174;DHT22;10246;50.620;7.232;2023-07-24T13:11:35;26.30;1.00
20174;DHT22;10246;50.620;7.232;2023-07-24T13:14:02;26.30;1.00
20174;DHT22;10246;50.620;7.232;2023-07-24T13:16:30;26.30;1.00
20174;DHT22;10246;50.620;7.232;2023-07-24T13:18:57;26.10;1.00
20174;DHT22;10246;50.620;7.232;2023-07-24T13:21:24;25.70;1.00
20174;DHT22;10246;50.620;7.232;2023-07-24T13:23:51;25.50;1.00
20174;DHT22;10246;50.620;7.232;2023-07-24T13:26:18;25.00;1.00
20174;DHT22;10246;50.620;7.232;2023-07-24T13:28:44;24.80;1.00
20174;DHT22;10246;50.620;7.232;2023-07-24T13:31:12;24.60;1.00
20174;DHT22;10246;50.620;7.232;2023-07-24T13:33:40;24.70;1.00
20174;DHT22;10246;50.620;7.232;2023-07-24T13:36:08;24.90;1.00
20174;DHT22;10246;50.620;7.232;2023-07-24T13:38:35;25.10;1.00
20174;DHT22;10246;50.620;7.232;2023-07-24T13:41:02;25.40;1.00
20174;DHT22;10246;50.620;7.232;2023-07-24T13:43:30;25.50;1.00
20174;DHT22;10246;50.620;7.232;2023-07-24T13:45:56;25.20;1.00
20174;DHT22;10246;50.620;7.232;2023-07-24T13:48:24;25.00;1.00
20174;DHT22;10246;50.620;7.232;2023-07-24T13:50:52;24.80;1.00
20174;DHT22;10246;50.620;7.232;2023-07-24T13:53:19;24.70;1.00
20174;DHT22;10246;50.620;7.232;2023-07-24T13:55:45;24.80;1.00
20174;DHT22;10246;50.620;7.232;2023-07-24T13:58:15;25.00;1.00
20174;DHT22;10246;50.620;7.232;2023-07-24T14:00:41;25.10;1.00
20174;DHT22;10246;50.620;7.232;2023-07-24T14:03:08;25.10;1.00
20174;DHT22;10246;50.620;7.232;2023-07-24T14:05:35;25.00;1.00
20174;DHT22;10246;50.620;7.232;2023-07-24T14:08:03;25.00;1.00
20174;DHT22;10246;50.620;7.232;2023-07-24T14:10:30;25.00;1.00
20174;DHT22;10246;50.620;7.232;2023-07-24T14:12:57;25.10;1.00
20174;DHT22;10246;50.620;7.232;2023-07-24T14:15:24;25.20;1.00
20174;DHT22;10246;50.620;7.232;2023-07-24T14:17:51;25.30;1.00
20174;DHT22;10246;50.620;7.232;2023-07-24T14:20:17;25.50;1.00
20174;DHT22;10246;50.620;7.232;2023-07-24T14:22:44;25.60;1.00
20174;DHT22;10246;50.620;7.232;2023-07-24T14:25:15;25.60;1.00
20174;DHT22;10246;50.620;7.232;2023-07-24T14:27:42;25.50;1.00
20174;DHT22;10246;50.620;7.232;2023-07-24T14:30:09;25.20;1.00
20174;DHT22;10246;50.620;7.232;2023-07-24T14:32:36;25.00;1.00
20174;DHT22;10246;50.620;7.232;2023-07-24T14:35:03;24.70;1.00
20174;DHT22;10246;50.620;7.232;2023-07-24T14:37:30;24.40;1.00
20174;DHT22;10246;50.620;7.232;2023-07-24T14:39:57;24.50;1.00
20174;DHT22;10246;50.620;7.232;2023-07-24T14:42:25;24.50;1.00
20174;DHT22;10246;50.620;7.232;2023-07-24T14:44:52;24.60;1.00
20174;DHT22;10246;50.620;7.232;2023-07-24T14:47:18;24.90;1.00
20174;DHT22;10246;50.620;7.232;2023-07-24T14:49:45;25.00;1.00
20174;DHT22;10246;50.620;7.232;2023-07-24T14:52:12;25.20;1.00
20174;DHT22;10246;50.620;7.232;2023-07-24T14:54:38;25.10;1.00
20174;DHT22;10246;50.620;7.232;2023-07-24T14:57:05;25.10;1.00
20174;DHT22;10246;50.620;7.232;2023-07-24T14:59:34;24.90;1.00
20174;DHT22;10246;50.620;7.232;2023-07-24T15:02:00;24.60;1.00
20174;DHT22;10246;50.620;7.232;2023-07-24T15:04:27;24.40;1.00
20174;DHT22;10246;50.620;7.232;2023-07-24T15:06:54;24.60;1.00
20174;DHT22;10246;50.620;7.232;2023-07-24T15:09:20;24.60;1.00
20174;DHT22;10246;50.620;7.232;2023-07-24T15:11:47;24.80;1.00
20174;DHT22;10246;50.620;7.232;2023-07-24T15:14:14;25.00;1.00
20174;DHT22;10246;50.620;7.232;2023-07-24T15:16:42;25.00;1.00
20174;DHT22;10246;50.620;7.232;2023-07-24T15:19:09;25.00;1.00
20174;DHT22;10246;50.620;7.232;2023-07-24T15:21:35;25.20;1.00
20174;DHT22;10246;50.620;7.232;2023-07-24T15:24:02;25.40;1.00
20174;DHT22;10246;50.620;7.232;2023-07-24T15:26:29;25.50;1.00
20174;DHT22;10246;50.620;7.232;2023-07-24T15:28:56;25.50;1.00
20174;DHT22;10246;50.620;7.232;2023-07-24T15:31:23;25.60;1.00
20174;DHT22;10246;50.620;7.232;2023-07-24T15:33:55;25.50;1.00
20174;DHT22;10246;50.620;7.232;2023-07-24T15:36:22;25.20;1.00
20174;DHT22;10246;50.620;7.232;2023-07-24T15:38:49;25.30;1.00
20174;DHT22;10246;50.620;7.232;2023-07-24T15:41:15;25.30;1.00
20174;DHT22;10246;50.620;7.232;2023-07-24T15:43:42;25.30;1.00
20174;DHT22;10246;50.620;7.232;2023-07-24T15:46:09;25.40;1.00